Terminal Aerodrome Forecast
Issued by NWS

Home | Current Version | Previous Version | Text Only | Print | Product List | Glossary On
Versions: 1 2 3 4 5 6 7 8 9 10 11 12 13 14 15 16 17 18 19 20 21 22 23 24 25 26 27 28
000
FTUS45 KGJT 250541
TAFEGE
TAF
KEGE 250541Z 2506/2606 12005KT P6SM VCSH BKN090
     FM251800 24004KT P6SM VCTS BKN070CB
     FM252000 25009G18KT P6SM VCTS BKN060CB
      TEMPO 2520/2524 25008KT P6SM SHRA BKN060
     FM260000 27009KT P6SM BKN050
     FM260200 23006KT P6SM BKN070
      AMD LTD TO CLD VIS AND WIND TIL 251300=

USA.gov is the U.S. government's official web portal to all federal, state and local government web resources and services.